Time;durP1;ratioP1;P1;durP2;ratioP2;P2;SDS_P1;SDS_P2;PMS_P1;PMS_P2;Temp;Humidity;BMP_temperature;BMP_pressure;BME280_temperature;BME280_humidity;BME280_pressure;Samples;Min_cycle;Max_cycle;Signal;HPM_P1;HPM_P2
2021/05/13 00:01:05;;;;;;;23.60;16.60;;;;;;;;;;5116171;28;20233;-76
2021/05/13 00:03:31;;;;;;;24.70;16.33;;;;;;;;;;5116481;27;20267;-75
2021/05/13 00:05:57;;;;;;;23.60;15.82;;;;;;;;;;5122519;27;20190;-74
2021/05/13 00:08:23;;;;;;;25.98;17.75;;;;;;;;;;5116399;27;20663;-75
2021/05/13 00:10:49;;;;;;;23.98;16.50;;;;;;;;;;5132035;27;20185;-75
2021/05/13 00:13:15;;;;;;;28.75;17.15;;;;;;;;;;5130982;27;20265;-73
2021/05/13 00:15:42;;;;;;;27.80;18.05;;;;;;;;;;5113134;28;20635;-75
2021/05/13 00:18:09;;;;;;;24.70;16.95;;;;;;;;;;5114896;27;20183;-76
2021/05/13 00:20:36;;;;;;;24.50;16.95;;;;;;;;;;5136865;27;20189;-73
2021/05/13 00:23:02;;;;;;;23.25;16.13;;;;;;;;;;5136133;27;20190;-72
2021/05/13 00:25:29;;;;;;;26.08;17.00;;;;;;;;;;5130573;27;20178;-72
2021/05/13 00:27:55;;;;;;;28.85;17.67;;;;;;;;;;5129494;27;20168;-74
2021/05/13 00:30:21;;;;;;;31.13;17.60;;;;;;;;;;5122159;27;20216;-75
2021/05/13 00:32:48;;;;;;;25.80;17.65;;;;;;;;;;5127119;27;20574;-75
2021/05/13 00:35:16;;;;;;;26.05;17.45;;;;;;;;;;5114860;28;20173;-75
2021/05/13 00:37:42;;;;;;;24.38;17.45;;;;;;;;;;5119375;27;20183;-74
2021/05/13 00:40:10;;;;;;;25.67;17.48;;;;;;;;;;5121245;27;20186;-77
2021/05/13 00:42:36;;;;;;;24.92;17.80;;;;;;;;;;5128289;27;20185;-74
2021/05/13 00:45:04;;;;;;;24.38;17.10;;;;;;;;;;5129020;27;20171;-74
2021/05/13 00:47:30;;;;;;;27.17;17.70;;;;;;;;;;5113851;28;20175;-73
2021/05/13 00:49:56;;;;;;;25.02;17.30;;;;;;;;;;5114663;28;20667;-76
2021/05/13 00:52:23;;;;;;;25.70;17.65;;;;;;;;;;5115168;28;20220;-76
2021/05/13 00:54:49;;;;;;;25.77;17.27;;;;;;;;;;5120913;27;20596;-75
2021/05/13 00:57:15;;;;;;;27.05;18.55;;;;;;;;;;5125849;27;20172;-74
2021/05/13 00:59:44;;;;;;;29.10;17.65;;;;;;;;;;5104859;27;20242;-74
2021/05/13 01:02:10;;;;;;;25.30;18.02;;;;;;;;;;5127711;27;20201;-75
2021/05/13 01:04:36;;;;;;;27.35;18.08;;;;;;;;;;5106084;27;20209;-74
2021/05/13 01:07:03;;;;;;;25.92;16.60;;;;;;;;;;5118005;27;20175;-76
2021/05/13 01:09:31;;;;;;;31.58;18.05;;;;;;;;;;5112297;27;20257;-74
2021/05/13 01:12:07;;;;;;;26.45;18.40;;;;;;;;;;5118232;27;20175;-75
2021/05/13 01:19:47;;;;;;;23.92;17.50;;;;;;;;;;5129403;27;20606;-74
2021/05/13 01:22:13;;;;;;;23.30;17.58;;;;;;;;;;5136034;27;20181;-75
2021/05/13 01:24:40;;;;;;;20.30;16.80;;;;;;;;;;5108710;27;20203;-74
2021/05/13 01:27:06;;;;;;;23.83;18.55;;;;;;;;;;5125108;27;20256;-75
2021/05/13 01:29:33;;;;;;;25.80;18.02;;;;;;;;;;5122354;27;20205;-75
2021/05/13 01:31:59;;;;;;;26.33;17.80;;;;;;;;;;5132463;27;20290;-74
2021/05/13 01:34:25;;;;;;;25.75;17.50;;;;;;;;;;5134889;27;20191;-74
2021/05/13 01:36:53;;;;;;;26.25;17.05;;;;;;;;;;5101727;28;20182;-75
2021/05/13 01:39:19;;;;;;;26.45;19.35;;;;;;;;;;5115288;27;20218;-74
2021/05/13 01:41:45;;;;;;;25.60;17.75;;;;;;;;;;5110558;27;20181;-74
2021/05/13 01:44:12;;;;;;;24.42;17.65;;;;;;;;;;5115488;27;20563;-75
2021/05/13 01:46:38;;;;;;;25.00;18.63;;;;;;;;;;5105954;27;20202;-76
2021/05/13 01:49:05;;;;;;;29.00;20.95;;;;;;;;;;5114423;28;20195;-74
2021/05/13 01:51:32;;;;;;;27.30;19.23;;;;;;;;;;5125138;27;20174;-74
2021/05/13 01:53:58;;;;;;;31.10;20.25;;;;;;;;;;5122020;27;20171;-76
2021/05/13 01:56:24;;;;;;;24.90;18.10;;;;;;;;;;5113968;27;20201;-75
2021/05/13 01:58:50;;;;;;;29.52;19.98;;;;;;;;;;5125385;27;20196;-74
2021/05/13 02:01:16;;;;;;;29.08;20.30;;;;;;;;;;5114172;27;20233;-75
2021/05/13 02:03:44;;;;;;;25.98;20.23;;;;;;;;;;5123627;27;20198;-74
2021/05/13 02:06:10;;;;;;;26.67;19.17;;;;;;;;;;5113223;28;20273;-76
2021/05/13 02:08:37;;;;;;;29.50;21.45;;;;;;;;;;5116170;27;20200;-74
2021/05/13 02:11:03;;;;;;;26.10;19.52;;;;;;;;;;5123581;27;20186;-73
2021/05/13 02:13:29;;;;;;;29.92;22.02;;;;;;;;;;5125813;27;20515;-74
2021/05/13 02:15:56;;;;;;;30.92;20.85;;;;;;;;;;5108130;27;20601;-74
2021/05/13 02:18:22;;;;;;;30.15;20.58;;;;;;;;;;5104551;27;20191;-74
2021/05/13 02:20:48;;;;;;;32.80;21.52;;;;;;;;;;5134681;27;20182;-75
2021/05/13 02:23:14;;;;;;;31.83;20.75;;;;;;;;;;5113671;27;20688;-74
2021/05/13 02:25:43;;;;;;;25.77;20.27;;;;;;;;;;5134576;27;20165;-75
2021/05/13 02:28:09;;;;;;;27.25;20.02;;;;;;;;;;5119575;27;20182;-76
2021/05/13 02:30:35;;;;;;;30.83;21.95;;;;;;;;;;5123682;27;20665;-74
2021/05/13 02:33:01;;;;;;;29.20;21.05;;;;;;;;;;5120509;27;20182;-76
2021/05/13 02:35:27;;;;;;;24.73;19.40;;;;;;;;;;5119498;27;20237;-76
2021/05/13 02:37:53;;;;;;;31.87;20.23;;;;;;;;;;5109654;28;20475;-75
2021/05/13 02:40:20;;;;;;;31.55;20.67;;;;;;;;;;5112142;28;20469;-74
2021/05/13 02:42:46;;;;;;;30.55;20.48;;;;;;;;;;5115568;27;20186;-74
2021/05/13 02:45:12;;;;;;;31.20;20.52;;;;;;;;;;5108896;27;20642;-76
2021/05/13 02:47:39;;;;;;;32.28;22.17;;;;;;;;;;5124263;27;20184;-75
2021/05/13 02:50:05;;;;;;;32.50;21.60;;;;;;;;;;5113517;28;20200;-76
2021/05/13 02:52:31;;;;;;;31.67;21.40;;;;;;;;;;5111384;27;20200;-74
2021/05/13 02:54:57;;;;;;;31.87;19.87;;;;;;;;;;5134186;27;20178;-75
2021/05/13 02:57:24;;;;;;;31.20;21.13;;;;;;;;;;5107115;27;20419;-75
2021/05/13 02:59:55;;;;;;;32.10;22.08;;;;;;;;;;5111542;27;20445;-72
2021/05/13 03:02:21;;;;;;;31.00;21.00;;;;;;;;;;5118085;27;20265;-73
2021/05/13 03:04:47;;;;;;;28.80;20.93;;;;;;;;;;5133670;27;20292;-76
2021/05/13 03:07:14;;;;;;;28.80;21.52;;;;;;;;;;5118759;27;20447;-73
2021/05/13 03:09:47;;;;;;;26.80;20.35;;;;;;;;;;5108158;27;20236;-77
2021/05/13 03:12:13;;;;;;;29.05;20.88;;;;;;;;;;5113909;28;20178;-73
2021/05/13 03:14:39;;;;;;;25.50;19.35;;;;;;;;;;5116665;27;20176;-73
2021/05/13 03:17:05;;;;;;;30.15;21.00;;;;;;;;;;5127303;27;20175;-74
2021/05/13 03:19:42;;;;;;;37.13;21.38;;;;;;;;;;5111560;28;20222;-74
2021/05/13 03:22:12;;;;;;;32.10;21.08;;;;;;;;;;5107551;28;20566;-75
2021/05/13 03:24:58;;;;;;;28.02;20.60;;;;;;;;;;5125710;28;20203;-75
2021/05/13 03:29:53;;;;;;;25.15;18.80;;;;;;;;;;5117589;28;20202;-76
2021/05/13 03:32:20;;;;;;;29.95;19.75;;;;;;;;;;5112908;28;20505;-77
2021/05/13 03:34:46;;;;;;;32.72;20.52;;;;;;;;;;5130401;28;20181;-75
2021/05/13 03:37:12;;;;;;;33.10;22.13;;;;;;;;;;5122911;28;20193;-75
2021/05/13 03:39:38;;;;;;;29.98;21.42;;;;;;;;;;5116325;28;20435;-75
2021/05/13 03:42:05;;;;;;;30.45;20.52;;;;;;;;;;5114215;28;20176;-77
2021/05/13 03:44:31;;;;;;;33.20;22.48;;;;;;;;;;5111696;28;20206;-74
2021/05/13 03:46:57;;;;;;;34.00;23.30;;;;;;;;;;5112907;28;20210;-75
2021/05/13 03:49:23;;;;;;;34.90;22.77;;;;;;;;;;5125436;28;20745;-75
2021/05/13 03:51:49;;;;;;;34.13;22.75;;;;;;;;;;5112549;28;20878;-75
2021/05/13 03:54:16;;;;;;;34.05;23.30;;;;;;;;;;5109134;28;20178;-74
2021/05/13 03:56:42;;;;;;;33.58;22.88;;;;;;;;;;5120695;28;20185;-73
2021/05/13 03:59:14;;;;;;;32.20;22.37;;;;;;;;;;5116796;28;20204;-74
2021/05/13 04:04:25;;;;;;;32.03;21.38;;;;;;;;;;5107982;28;20212;-75
2021/05/13 04:06:51;;;;;;;34.30;22.60;;;;;;;;;;5132940;28;20555;-75
2021/05/13 04:09:17;;;;;;;33.75;20.83;;;;;;;;;;5134929;27;20432;-74
2021/05/13 04:11:43;;;;;;;30.92;20.73;;;;;;;;;;5122198;27;20178;-76
2021/05/13 04:14:09;;;;;;;35.17;22.17;;;;;;;;;;5118649;27;20554;-74
2021/05/13 04:16:39;;;;;;;32.22;21.73;;;;;;;;;;5121087;27;20445;-75
2021/05/13 04:19:05;;;;;;;32.90;22.50;;;;;;;;;;5112277;27;20203;-73
2021/05/13 04:21:31;;;;;;;30.60;21.65;;;;;;;;;;5114143;27;20219;-76
2021/05/13 04:23:57;;;;;;;35.38;22.15;;;;;;;;;;5132468;27;20198;-75
2021/05/13 04:26:23;;;;;;;31.75;21.42;;;;;;;;;;5132557;27;20178;-75
2021/05/13 04:28:49;;;;;;;33.35;21.25;;;;;;;;;;5117727;27;20222;-76
2021/05/13 04:31:15;;;;;;;30.75;20.75;;;;;;;;;;5119024;27;20163;-77
2021/05/13 04:33:41;;;;;;;30.02;21.75;;;;;;;;;;5121042;27;20205;-77
2021/05/13 04:36:07;;;;;;;28.27;19.55;;;;;;;;;;5132600;27;20681;-77
2021/05/13 04:38:34;;;;;;;33.55;22.67;;;;;;;;;;5132590;27;20205;-76
2021/05/13 04:41:00;;;;;;;31.23;21.65;;;;;;;;;;5108936;27;20243;-77
2021/05/13 04:43:32;;;;;;;31.88;21.33;;;;;;;;;;5120542;27;20271;-76
2021/05/13 04:45:58;;;;;;;30.00;21.75;;;;;;;;;;5117631;27;20173;-75
2021/05/13 04:48:26;;;;;;;25.95;19.85;;;;;;;;;;5132132;27;20193;-75
2021/05/13 04:50:52;;;;;;;29.63;21.88;;;;;;;;;;5117090;27;20173;-76
2021/05/13 04:53:18;;;;;;;27.45;19.58;;;;;;;;;;5111696;28;20183;-76
2021/05/13 04:55:44;;;;;;;26.23;18.70;;;;;;;;;;5131813;27;20249;-75
2021/05/13 04:58:11;;;;;;;25.80;18.63;;;;;;;;;;5131971;27;20189;-74
2021/05/13 05:00:38;;;;;;;26.63;18.90;;;;;;;;;;5121770;27;20416;-73
2021/05/13 05:03:04;;;;;;;31.33;20.08;;;;;;;;;;5120354;27;20174;-77
2021/05/13 05:05:30;;;;;;;30.70;22.15;;;;;;;;;;5117995;27;20220;-76
2021/05/13 05:07:56;;;;;;;27.85;19.45;;;;;;;;;;5121811;27;20182;-75
2021/05/13 05:10:23;;;;;;;28.80;21.40;;;;;;;;;;5131468;27;20214;-76
2021/05/13 05:12:49;;;;;;;28.63;19.60;;;;;;;;;;5131372;27;20395;-74
2021/05/13 05:15:15;;;;;;;28.10;18.48;;;;;;;;;;5118030;27;20170;-75
2021/05/13 05:17:41;;;;;;;24.02;16.90;;;;;;;;;;5131649;27;20638;-77
2021/05/13 05:20:07;;;;;;;26.08;19.95;;;;;;;;;;5131467;27;20194;-75
2021/05/13 05:22:34;;;;;;;21.73;15.88;;;;;;;;;;5131984;27;20180;-75
2021/05/13 05:25:00;;;;;;;24.02;15.13;;;;;;;;;;5131610;27;20527;-74
2021/05/13 05:27:26;;;;;;;23.55;16.98;;;;;;;;;;5129112;27;20178;-75
2021/05/13 05:29:52;;;;;;;22.63;16.52;;;;;;;;;;5117441;27;20194;-75
2021/05/13 05:32:18;;;;;;;17.45;14.30;;;;;;;;;;5132023;27;20177;-75
2021/05/13 05:34:44;;;;;;;19.33;14.32;;;;;;;;;;5131554;27;20184;-75
2021/05/13 05:37:10;;;;;;;19.45;15.38;;;;;;;;;;5131631;27;20174;-74
2021/05/13 05:39:36;;;;;;;19.50;15.45;;;;;;;;;;5131234;27;20202;-74
2021/05/13 05:42:02;;;;;;;20.88;15.20;;;;;;;;;;5131557;27;20252;-72
2021/05/13 05:44:28;;;;;;;21.48;15.93;;;;;;;;;;5117217;27;20210;-75
2021/05/13 05:46:54;;;;;;;18.85;15.52;;;;;;;;;;5131366;27;20227;-75
2021/05/13 05:49:20;;;;;;;16.63;13.63;;;;;;;;;;5130066;27;20197;-73
2021/05/13 05:51:46;;;;;;;17.60;14.73;;;;;;;;;;5118463;27;20404;-74
2021/05/13 05:54:12;;;;;;;19.30;15.30;;;;;;;;;;5131021;27;20184;-76
2021/05/13 05:56:38;;;;;;;19.83;15.02;;;;;;;;;;5131304;27;20415;-74
2021/05/13 05:59:06;;;;;;;19.95;15.40;;;;;;;;;;5130877;27;20207;-77
2021/05/13 06:01:34;;;;;;;20.27;14.68;;;;;;;;;;5131333;27;20173;-74
2021/05/13 06:04:00;;;;;;;18.73;15.88;;;;;;;;;;5130776;27;20221;-77
2021/05/13 06:06:26;;;;;;;18.17;14.77;;;;;;;;;;5131204;27;20184;-74
2021/05/13 06:08:52;;;;;;;17.60;14.30;;;;;;;;;;5127630;27;20435;-76
2021/05/13 06:11:18;;;;;;;17.20;13.50;;;;;;;;;;5130964;27;20449;-76
2021/05/13 06:13:44;;;;;;;19.20;14.60;;;;;;;;;;5129216;27;20847;-76
2021/05/13 06:16:11;;;;;;;19.15;15.35;;;;;;;;;;5110797;28;20189;-75
2021/05/13 06:18:48;;;;;;;21.38;16.00;;;;;;;;;;5113703;27;20206;-77
2021/05/13 06:21:14;;;;;;;22.48;15.13;;;;;;;;;;5120622;27;20226;-75
2021/05/13 06:23:40;;;;;;;20.75;15.75;;;;;;;;;;5130421;27;20209;-75
2021/05/13 06:26:06;;;;;;;18.95;14.45;;;;;;;;;;5130924;27;20256;-75
2021/05/13 06:28:32;;;;;;;19.57;14.57;;;;;;;;;;5118361;27;20280;-75
2021/05/13 06:30:58;;;;;;;21.23;15.20;;;;;;;;;;5120462;27;20411;-75
2021/05/13 06:33:24;;;;;;;20.07;15.67;;;;;;;;;;5129613;27;20418;-73
2021/05/13 06:35:50;;;;;;;23.63;16.60;;;;;;;;;;5130644;27;21035;-74
2021/05/13 06:38:16;;;;;;;22.17;15.43;;;;;;;;;;5130260;27;20214;-76
2021/05/13 06:40:42;;;;;;;20.00;15.00;;;;;;;;;;5130442;27;20183;-74
2021/05/13 06:43:08;;;;;;;21.43;14.30;;;;;;;;;;5126784;27;20774;-76
2021/05/13 06:45:34;;;;;;;20.13;15.65;;;;;;;;;;5120136;27;20495;-77
2021/05/13 06:48:00;;;;;;;19.23;14.97;;;;;;;;;;5130362;27;20214;-76
2021/05/13 06:50:27;;;;;;;20.63;15.40;;;;;;;;;;5130365;27;20491;-75
2021/05/13 06:52:53;;;;;;;21.80;15.07;;;;;;;;;;5127301;27;20403;-74
2021/05/13 06:55:20;;;;;;;22.50;15.45;;;;;;;;;;5109600;28;20257;-75
2021/05/13 06:57:46;;;;;;;21.77;14.27;;;;;;;;;;5112062;27;20536;-75
2021/05/13 07:00:12;;;;;;;20.43;15.03;;;;;;;;;;5113335;27;20214;-73
2021/05/13 07:02:38;;;;;;;20.80;15.40;;;;;;;;;;5123444;27;20415;-75
2021/05/13 07:05:05;;;;;;;20.33;14.30;;;;;;;;;;5126386;27;20201;-74
2021/05/13 07:07:32;;;;;;;21.75;15.00;;;;;;;;;;5121806;27;20411;-77
2021/05/13 07:09:58;;;;;;;23.52;16.15;;;;;;;;;;5129612;27;20255;-75
2021/05/13 07:12:24;;;;;;;18.63;14.45;;;;;;;;;;5112531;27;20227;-74
2021/05/13 07:14:50;;;;;;;23.90;16.02;;;;;;;;;;5118434;27;20577;-75
2021/05/13 07:17:16;;;;;;;21.38;15.43;;;;;;;;;;5108205;28;20611;-75
2021/05/13 07:19:42;;;;;;;20.20;14.73;;;;;;;;;;5120258;27;20710;-74
2021/05/13 07:22:08;;;;;;;19.27;15.13;;;;;;;;;;5103813;28;20273;-77
2021/05/13 07:24:34;;;;;;;28.42;21.25;;;;;;;;;;5129548;28;20288;-75
2021/05/13 07:27:00;;;;;;;19.50;14.70;;;;;;;;;;5112648;28;20315;-75
2021/05/13 07:29:26;;;;;;;22.15;17.30;;;;;;;;;;5108949;28;20199;-74
2021/05/13 07:31:52;;;;;;;28.40;21.27;;;;;;;;;;5108655;28;20170;-74
2021/05/13 07:34:18;;;;;;;24.90;16.70;;;;;;;;;;5129444;28;20184;-76
2021/05/13 07:36:44;;;;;;;21.63;14.35;;;;;;;;;;5114195;28;20475;-76
2021/05/13 07:39:10;;;;;;;18.02;13.73;;;;;;;;;;5129585;28;20292;-77
2021/05/13 07:41:36;;;;;;;19.20;13.73;;;;;;;;;;5118684;28;20218;-76
2021/05/13 07:44:02;;;;;;;16.93;13.13;;;;;;;;;;5109649;28;20361;-75
2021/05/13 07:46:34;;;;;;;17.80;12.13;;;;;;;;;;5121384;27;20420;-75
2021/05/13 07:49:00;;;;;;;18.90;14.55;;;;;;;;;;5133451;27;20303;-74
2021/05/13 07:51:26;;;;;;;16.42;12.90;;;;;;;;;;5124065;27;20528;-74
2021/05/13 07:53:52;;;;;;;14.70;10.88;;;;;;;;;;5124795;27;20186;-76
2021/05/13 07:56:18;;;;;;;16.00;13.40;;;;;;;;;;5127101;27;20306;-74
2021/05/13 07:58:44;;;;;;;12.88;10.27;;;;;;;;;;5112746;28;20333;-75
2021/05/13 08:01:10;;;;;;;15.25;12.25;;;;;;;;;;5126271;27;20183;-75
2021/05/13 08:03:36;;;;;;;13.82;11.60;;;;;;;;;;5112652;28;20308;-74
2021/05/13 08:06:03;;;;;;;13.60;11.95;;;;;;;;;;5125465;27;20251;-74
2021/05/13 08:08:29;;;;;;;13.73;10.63;;;;;;;;;;5118266;27;20198;-75
2021/05/13 08:10:55;;;;;;;15.93;12.30;;;;;;;;;;5130401;27;20182;-75
2021/05/13 08:13:21;;;;;;;12.10;10.90;;;;;;;;;;5115715;27;20467;-74
2021/05/13 08:15:46;;;;;;;13.30;10.77;;;;;;;;;;5119333;27;20761;-74
2021/05/13 08:18:13;;;;;;;13.10;11.37;;;;;;;;;;5116247;27;20282;-75
2021/05/13 08:20:39;;;;;;;15.05;11.10;;;;;;;;;;5108678;27;20438;-75
2021/05/13 08:23:06;;;;;;;12.73;10.27;;;;;;;;;;5132867;27;20182;-76
2021/05/13 08:25:32;;;;;;;14.10;11.82;;;;;;;;;;5112159;27;20416;-75
2021/05/13 08:27:58;;;;;;;13.00;10.70;;;;;;;;;;5125511;27;20186;-72
2021/05/13 08:30:24;;;;;;;15.50;13.48;;;;;;;;;;5109493;27;20419;-75
2021/05/13 08:32:51;;;;;;;12.57;11.10;;;;;;;;;;5132740;27;20215;-74
2021/05/13 08:35:17;;;;;;;12.70;10.95;;;;;;;;;;5119345;27;20197;-78
2021/05/13 08:37:43;;;;;;;12.77;10.63;;;;;;;;;;5132933;27;20188;-75
2021/05/13 08:40:09;;;;;;;12.25;10.95;;;;;;;;;;5113846;27;20198;-76
2021/05/13 08:42:35;;;;;;;14.63;12.95;;;;;;;;;;5117231;27;20178;-76
2021/05/13 08:45:02;;;;;;;14.55;11.13;;;;;;;;;;5111347;27;20194;-75
2021/05/13 08:47:28;;;;;;;14.40;11.30;;;;;;;;;;5124534;27;20261;-75
2021/05/13 08:49:54;;;;;;;15.60;11.70;;;;;;;;;;5122599;27;20334;-75
2021/05/13 08:52:21;;;;;;;13.85;11.20;;;;;;;;;;5132681;27;20403;-75
2021/05/13 08:54:51;;;;;;;12.55;10.55;;;;;;;;;;5130666;27;20312;-75
2021/05/13 08:57:17;;;;;;;14.20;12.60;;;;;;;;;;5132191;27;20180;-76
2021/05/13 08:59:43;;;;;;;32.53;19.95;;;;;;;;;;5106552;27;20202;-74
2021/05/13 09:02:11;;;;;;;14.38;12.10;;;;;;;;;;5132421;27;20190;-76
2021/05/13 09:04:41;;;;;;;14.82;12.65;;;;;;;;;;5109576;27;20628;-75
2021/05/13 09:07:30;;;;;;;15.68;12.82;;;;;;;;;;5129613;27;20250;-75
2021/05/13 09:09:57;;;;;;;15.35;11.70;;;;;;;;;;5113711;27;20220;-75
2021/05/13 09:12:28;;;;;;;16.92;13.38;;;;;;;;;;5131797;27;20695;-75
2021/05/13 09:15:09;;;;;;;15.48;10.95;;;;;;;;;;5111819;27;20190;-77
2021/05/13 09:17:35;;;;;;;14.25;11.82;;;;;;;;;;5125368;27;20174;-75
2021/05/13 09:20:01;;;;;;;39.55;32.80;;;;;;;;;;5110578;27;20206;-75
2021/05/13 09:22:29;;;;;;;15.35;13.75;;;;;;;;;;5111225;27;20189;-77
2021/05/13 09:25:07;;;;;;;11.88;9.60;;;;;;;;;;5119008;27;20201;-74
2021/05/13 09:27:49;;;;;;;12.38;10.88;;;;;;;;;;5109626;27;20258;-76
2021/05/13 09:30:16;;;;;;;11.98;10.50;;;;;;;;;;5122618;27;20201;-76
2021/05/13 09:32:47;;;;;;;13.85;12.07;;;;;;;;;;5116215;27;20467;-77
2021/05/13 09:35:14;;;;;;;12.98;9.93;;;;;;;;;;5108364;28;20206;-75
2021/05/13 09:37:45;;;;;;;10.50;9.40;;;;;;;;;;5110288;27;20185;-77
2021/05/13 09:40:11;;;;;;;12.05;10.57;;;;;;;;;;5123744;27;20210;-76
2021/05/13 09:42:38;;;;;;;11.40;10.30;;;;;;;;;;5117439;27;20178;-75
2021/05/13 09:45:05;;;;;;;14.15;10.00;;;;;;;;;;5114483;27;20685;-73
2021/05/13 09:47:33;;;;;;;11.25;9.73;;;;;;;;;;5131012;27;20672;-76
2021/05/13 09:50:07;;;;;;;11.95;10.63;;;;;;;;;;5131542;27;20229;-77
2021/05/13 09:52:40;;;;;;;12.30;10.50;;;;;;;;;;5131286;27;20628;-75
2021/05/13 09:55:13;;;;;;;13.18;10.57;;;;;;;;;;5116027;27;20234;-76
2021/05/13 09:57:40;;;;;;;12.70;10.90;;;;;;;;;;5131300;27;20180;-76
2021/05/13 10:00:06;;;;;;;10.07;9.05;;;;;;;;;;5130938;27;20210;-74
2021/05/13 10:02:33;;;;;;;16.00;9.80;;;;;;;;;;5131172;27;20209;-75
2021/05/13 10:04:59;;;;;;;12.60;10.70;;;;;;;;;;5114225;27;20206;-73
2021/05/13 10:07:27;;;;;;;10.68;9.68;;;;;;;;;;5114435;27;20174;-78
2021/05/13 10:09:53;;;;;;;11.00;8.38;;;;;;;;;;5127200;27;20281;-79
2021/05/13 10:12:20;;;;;;;10.00;8.98;;;;;;;;;;5120724;27;20173;-76
2021/05/13 10:14:50;;;;;;;9.02;8.13;;;;;;;;;;5123081;27;20213;-76
2021/05/13 10:17:16;;;;;;;10.82;9.60;;;;;;;;;;5111532;27;20251;-74
2021/05/13 10:19:46;;;;;;;9.27;8.15;;;;;;;;;;5122488;27;20195;-77
2021/05/13 10:22:14;;;;;;;12.82;10.95;;;;;;;;;;5127365;27;20218;-78
2021/05/13 10:24:40;;;;;;;12.57;8.90;;;;;;;;;;5126326;27;20204;-79
2021/05/13 10:27:16;;;;;;;9.88;8.77;;;;;;;;;;5120929;27;20184;-73
2021/05/13 10:29:42;;;;;;;11.27;8.82;;;;;;;;;;5104561;27;20201;-76
2021/05/13 10:34:41;;;;;;;12.73;9.50;;;;;;;;;;5128090;27;20221;-76
2021/05/13 10:37:26;;;;;;;9.48;8.13;;;;;;;;;;5124986;27;20174;-76
2021/05/13 10:42:48;;;;;;;11.23;8.30;;;;;;;;;;5104512;27;20189;-76
2021/05/13 10:45:26;;;;;;;8.25;7.45;;;;;;;;;;5124304;27;20237;-77
2021/05/13 10:48:11;;;;;;;9.40;8.50;;;;;;;;;;5123693;27;20176;-77
2021/05/13 10:51:03;;;;;;;8.43;7.40;;;;;;;;;;5105529;27;20192;-76
2021/05/13 10:53:32;;;;;;;12.48;10.10;;;;;;;;;;5118647;27;20228;-77
2021/05/13 10:56:13;;;;;;;8.50;7.70;;;;;;;;;;5130319;27;20213;-76
2021/05/13 10:58:52;;;;;;;10.48;8.50;;;;;;;;;;5126646;27;20253;-74
2021/05/13 11:01:33;;;;;;;10.30;7.88;;;;;;;;;;5130183;27;20190;-76
2021/05/13 11:04:18;;;;;;;8.63;7.70;;;;;;;;;;5118461;27;20221;-76
2021/05/13 11:06:44;;;;;;;8.95;7.07;;;;;;;;;;5103727;27;20541;-76
2021/05/13 11:09:10;;;;;;;9.05;7.85;;;;;;;;;;5123063;27;20217;-76
2021/05/13 11:12:02;;;;;;;8.68;7.88;;;;;;;;;;5117358;27;20175;-76
2021/05/13 11:14:29;;;;;;;8.98;7.15;;;;;;;;;;5109370;28;20174;-76
2021/05/13 11:16:56;;;;;;;9.38;8.38;;;;;;;;;;5121046;27;20550;-74
2021/05/13 11:19:29;;;;;;;9.98;7.70;;;;;;;;;;5129121;27;20216;-74
2021/05/13 11:21:56;;;;;;;7.60;6.90;;;;;;;;;;5117611;27;20190;-76
2021/05/13 11:24:23;;;;;;;9.30;8.50;;;;;;;;;;5114737;28;20201;-74
2021/05/13 11:26:56;;;;;;;8.25;7.45;;;;;;;;;;5108535;28;20545;-76
2021/05/13 11:29:22;;;;;;;9.07;8.18;;;;;;;;;;5109847;28;20201;-77
2021/05/13 11:31:51;;;;;;;8.38;7.55;;;;;;;;;;5109622;28;20183;-75
2021/05/13 11:34:19;;;;;;;8.10;7.30;;;;;;;;;;5095616;28;20815;-77
2021/05/13 11:36:45;;;;;;;8.00;7.30;;;;;;;;;;5098620;28;20326;-76
2021/05/13 11:39:13;;;;;;;8.02;7.32;;;;;;;;;;5102672;28;20200;-76
2021/05/13 11:41:42;;;;;;;8.13;7.32;;;;;;;;;;5110518;27;20191;-76
2021/05/13 11:44:09;;;;;;;7.88;7.28;;;;;;;;;;5129680;28;20205;-76
2021/05/13 11:46:36;;;;;;;7.72;6.95;;;;;;;;;;5113992;28;20207;-78
2021/05/13 11:49:03;;;;;;;8.70;6.43;;;;;;;;;;5129339;28;20193;-78
2021/05/13 11:51:30;;;;;;;11.68;10.48;;;;;;;;;;5124712;28;20199;-74
2021/05/13 11:53:57;;;;;;;11.70;9.38;;;;;;;;;;5129362;28;20193;-79
2021/05/13 11:56:23;;;;;;;7.00;6.32;;;;;;;;;;5124228;28;20177;-79
2021/05/13 11:58:50;;;;;;;7.28;6.55;;;;;;;;;;5129153;28;20304;-77
2021/05/13 12:01:19;;;;;;;7.22;6.63;;;;;;;;;;5126201;28;20191;-77
2021/05/13 12:03:45;;;;;;;7.80;7.10;;;;;;;;;;5124874;28;20233;-76
2021/05/13 12:06:12;;;;;;;6.55;5.85;;;;;;;;;;5100954;28;20185;-74
2021/05/13 12:08:38;;;;;;;7.70;7.00;;;;;;;;;;5111554;28;20201;-76
2021/05/13 12:11:21;;;;;;;9.82;7.78;;;;;;;;;;5107466;28;20191;-80
2021/05/13 12:13:48;;;;;;;7.93;7.20;;;;;;;;;;5108554;28;20194;-83
2021/05/13 12:16:14;;;;;;;8.40;7.30;;;;;;;;;;5109370;28;20416;-78
2021/05/13 12:18:42;;;;;;;9.63;7.63;;;;;;;;;;5122406;28;20221;-79
2021/05/13 12:21:08;;;;;;;110.13;98.18;;;;;;;;;;5108367;28;20519;-78
2021/05/13 12:23:35;;;;;;;11.32;9.30;;;;;;;;;;5122218;28;20834;-79
2021/05/13 12:26:01;;;;;;;12.02;10.85;;;;;;;;;;5089273;28;20175;-81
2021/05/13 12:28:27;;;;;;;13.27;11.95;;;;;;;;;;5105149;28;20551;-77
2021/05/13 12:30:54;;;;;;;13.73;12.32;;;;;;;;;;5104665;28;20259;-75
2021/05/13 12:33:23;;;;;;;13.82;12.45;;;;;;;;;;5120570;27;20185;-80
2021/05/13 12:35:50;;;;;;;14.40;12.38;;;;;;;;;;5123250;27;20176;-76
2021/05/13 12:38:17;;;;;;;14.98;13.48;;;;;;;;;;5107021;27;20233;-77
2021/05/13 12:40:43;;;;;;;16.15;14.60;;;;;;;;;;5125576;27;20233;-79
2021/05/13 12:43:19;;;;;;;15.52;13.93;;;;;;;;;;5121007;27;20177;-76
2021/05/13 12:45:46;;;;;;;15.20;13.70;;;;;;;;;;5132165;27;20308;-80
2021/05/13 12:48:19;;;;;;;15.05;13.55;;;;;;;;;;5114527;27;20589;-79
2021/05/13 12:50:54;;;;;;;15.20;13.80;;;;;;;;;;5133092;27;20188;-78
2021/05/13 12:53:20;;;;;;;15.02;13.52;;;;;;;;;;5117364;27;20250;-79
2021/05/13 12:55:46;;;;;;;13.73;12.50;;;;;;;;;;5134246;27;20170;-79
2021/05/13 12:58:14;;;;;;;14.10;12.70;;;;;;;;;;5132133;27;20932;-80
2021/05/13 13:00:41;;;;;;;13.70;12.50;;;;;;;;;;5134160;27;20264;-79
2021/05/13 13:03:08;;;;;;;14.50;13.20;;;;;;;;;;5108187;27;20250;-76
2021/05/13 13:05:34;;;;;;;13.48;12.18;;;;;;;;;;5132403;27;20204;-80
2021/05/13 13:08:01;;;;;;;17.00;13.30;;;;;;;;;;5108317;27;20179;-77
2021/05/13 13:10:32;;;;;;;13.48;12.23;;;;;;;;;;5124816;27;20193;-78
2021/05/13 13:13:09;;;;;;;14.60;13.35;;;;;;;;;;5112948;27;20643;-75
2021/05/13 13:15:40;;;;;;;15.50;14.10;;;;;;;;;;5118309;27;20178;-82
2021/05/13 13:18:08;;;;;;;14.60;13.25;;;;;;;;;;5106444;27;20511;-79
2021/05/13 13:20:34;;;;;;;13.05;11.73;;;;;;;;;;5113746;27;20183;-80
2021/05/13 13:23:19;;;;;;;13.95;12.48;;;;;;;;;;5114957;27;20187;-81
2021/05/13 13:25:45;;;;;;;13.23;12.00;;;;;;;;;;5112127;28;20182;-80
2021/05/13 13:28:11;;;;;;;13.07;11.90;;;;;;;;;;5111445;28;20201;-80
2021/05/13 13:30:37;;;;;;;15.48;14.07;;;;;;;;;;5116625;27;20681;-79
2021/05/13 13:33:13;;;;;;;12.45;11.35;;;;;;;;;;5126745;27;20181;-76
2021/05/13 13:35:40;;;;;;;12.20;11.10;;;;;;;;;;5132085;27;20177;-79
2021/05/13 13:38:08;;;;;;;12.32;11.00;;;;;;;;;;5116726;27;20417;-82
2021/05/13 13:40:34;;;;;;;13.45;12.15;;;;;;;;;;5119499;27;20185;-76
2021/05/13 13:43:00;;;;;;;14.02;12.63;;;;;;;;;;5116361;27;20639;-80
2021/05/13 13:45:26;;;;;;;11.13;10.10;;;;;;;;;;5119501;27;20274;-78
2021/05/13 13:47:52;;;;;;;11.33;10.23;;;;;;;;;;5111540;27;20597;-80
2021/05/13 13:50:18;;;;;;;11.03;10.00;;;;;;;;;;5121357;27;20805;-81
2021/05/13 13:52:44;;;;;;;9.50;8.60;;;;;;;;;;5110809;27;20420;-79
2021/05/13 13:55:11;;;;;;;11.70;10.80;;;;;;;;;;5103426;28;20434;-80
2021/05/13 13:57:38;;;;;;;11.70;10.70;;;;;;;;;;5120685;27;20412;-80
2021/05/13 14:00:04;;;;;;;9.80;8.82;;;;;;;;;;5118406;27;20207;-81
2021/05/13 14:02:30;;;;;;;10.83;9.83;;;;;;;;;;5121158;27;20184;-79
2021/05/13 14:04:56;;;;;;;8.90;8.20;;;;;;;;;;5122087;27;20822;-78
2021/05/13 14:07:22;;;;;;;10.23;9.43;;;;;;;;;;5112645;27;20416;-77
2021/05/13 14:09:48;;;;;;;10.67;9.73;;;;;;;;;;5124464;27;20530;-82
2021/05/13 14:12:14;;;;;;;10.97;10.03;;;;;;;;;;5121773;27;20907;-81
2021/05/13 14:14:40;;;;;;;11.43;10.30;;;;;;;;;;5120581;27;20416;-78
2021/05/13 14:17:06;;;;;;;11.37;10.37;;;;;;;;;;5117906;27;20412;-78
2021/05/13 14:19:32;;;;;;;11.10;10.20;;;;;;;;;;5130843;27;20442;-81
2021/05/13 14:22:02;;;;;;;13.73;12.53;;;;;;;;;;5110130;28;21026;-80
2021/05/13 14:24:28;;;;;;;11.43;9.60;;;;;;;;;;5130810;27;20467;-78
2021/05/13 14:26:54;;;;;;;11.63;10.60;;;;;;;;;;5121523;27;20428;-81
2021/05/13 14:29:20;;;;;;;11.20;10.00;;;;;;;;;;5110673;27;20536;-80
2021/05/13 14:31:47;;;;;;;11.02;10.13;;;;;;;;;;5122313;27;20817;-83
2021/05/13 14:34:13;;;;;;;11.63;10.63;;;;;;;;;;5120681;27;20192;-82
2021/05/13 14:36:39;;;;;;;10.40;9.40;;;;;;;;;;5130860;27;20419;-80
2021/05/13 14:39:05;;;;;;;11.10;10.20;;;;;;;;;;5124323;27;20451;-77